Time;durP1;ratioP1;P1;durP2;ratioP2;P2;SDS_P1;SDS_P2;PMS_P1;PMS_P2;Temp;Humidity;BMP_temperature;BMP_pressure;BME280_temperature;BME280_humidity;BME280_pressure;Samples;Min_cycle;Max_cycle;Signal;HPM_P1;HPM_P2
2021/06/27 00:00:43;;;;;;;21.45;17.52;;;;;;;21.59;54.58;100116.09;5074847;28;20418;-93
2021/06/27 00:03:12;;;;;;;19.42;17.15;;;;;;;21.58;54.33;100114.41;5074941;28;20049;-92
2021/06/27 00:05:39;;;;;;;19.55;17.20;;;;;;;21.57;54.52;100125.28;5073604;28;20057;-91
2021/06/27 00:08:08;;;;;;;20.77;17.50;;;;;;;21.54;54.67;100120.22;5074144;28;20482;-90
2021/06/27 00:10:38;;;;;;;20.98;17.20;;;;;;;21.50;54.96;100116.16;5072988;28;20053;-90
2021/06/27 00:13:06;;;;;;;22.42;17.98;;;;;;;21.47;54.72;100112.78;5077062;28;20417;-91
2021/06/27 00:15:37;;;;;;;20.75;18.17;;;;;;;21.41;55.40;100115.22;5075967;28;20448;-91
2021/06/27 00:18:05;;;;;;;21.52;17.50;;;;;;;21.40;54.91;100117.06;5074046;28;20551;-92
2021/06/27 00:20:35;;;;;;;24.27;18.63;;;;;;;21.36;55.35;100115.66;5075383;28;20056;-90
2021/06/27 00:23:06;;;;;;;21.55;18.65;;;;;;;21.35;55.54;100111.31;5073669;28;20109;-91
2021/06/27 00:25:33;;;;;;;22.10;18.73;;;;;;;21.33;55.32;100108.78;5073323;28;20475;-91
2021/06/27 00:28:00;;;;;;;23.55;18.92;;;;;;;21.30;55.30;100111.75;5073800;28;20052;-90
2021/06/27 00:30:28;;;;;;;23.13;19.02;;;;;;;21.28;55.65;100105.72;5074186;28;20489;-91
2021/06/27 00:32:56;;;;;;;23.60;18.88;;;;;;;21.25;55.86;100114.03;5073579;28;20098;-90
2021/06/27 00:35:31;;;;;;;23.92;19.15;;;;;;;21.22;56.10;100104.47;5073702;28;20045;-91
2021/06/27 00:37:58;;;;;;;22.40;18.85;;;;;;;21.21;56.07;100101.94;5074348;28;20056;-91
2021/06/27 00:40:27;;;;;;;23.33;20.13;;;;;;;21.19;56.35;100110.09;5072831;28;20056;-90
2021/06/27 00:42:54;;;;;;;24.35;19.92;;;;;;;21.18;56.18;100104.91;5073394;28;20055;-88
2021/06/27 00:45:23;;;;;;;27.98;21.38;;;;;;;21.16;56.46;100106.91;5072091;28;20063;-92
2021/06/27 00:47:50;;;;;;;24.45;19.33;;;;;;;21.14;56.32;100108.88;5073357;28;20083;-90
2021/06/27 00:50:24;;;;;;;22.98;18.80;;;;;;;21.11;57.27;100103.81;5073770;28;20063;-90
2021/06/27 00:52:51;;;;;;;22.75;19.58;;;;;;;21.10;56.46;100105.66;5074701;28;20063;-91
2021/06/27 00:55:19;;;;;;;23.55;20.05;;;;;;;21.08;56.73;100097.75;5073466;28;20048;-90
2021/06/27 00:57:47;;;;;;;26.00;20.73;;;;;;;21.06;56.88;100105.13;5073018;28;20451;-91
2021/06/27 01:00:23;;;;;;;21.05;18.77;;;;;;;21.03;57.22;100108.06;5072614;28;20411;-91
2021/06/27 01:02:52;;;;;;;24.45;20.30;;;;;;;21.03;56.56;100102.72;5074102;28;20059;-93
2021/06/27 01:05:24;;;;;;;25.70;20.90;;;;;;;21.00;57.23;100099.50;5072062;28;20464;-91
2021/06/27 01:07:51;;;;;;;23.67;20.25;;;;;;;20.98;56.72;100104.16;5072164;28;20429;-90
2021/06/27 01:10:17;;;;;;;27.60;20.02;;;;;;;20.94;57.08;100099.09;5073608;28;20431;-91
2021/06/27 01:12:44;;;;;;;27.52;20.27;;;;;;;20.92;57.22;100102.91;5072086;28;20052;-91
2021/06/27 01:15:12;;;;;;;29.08;22.40;;;;;;;20.89;57.21;100104.03;5072675;28;20049;-92
2021/06/27 01:17:42;;;;;;;27.70;21.95;;;;;;;20.87;57.77;100106.03;5074019;28;20055;-91
2021/06/27 01:20:13;;;;;;;26.50;21.88;;;;;;;20.85;58.01;100101.78;5074364;28;20048;-91
2021/06/27 01:22:40;;;;;;;27.63;22.38;;;;;;;20.84;57.69;100098.25;5072983;28;20060;-91
2021/06/27 01:25:09;;;;;;;26.42;21.98;;;;;;;20.81;57.87;100101.22;5072671;28;20370;-91
2021/06/27 01:27:36;;;;;;;28.40;23.02;;;;;;;20.79;58.13;100108.56;5072979;28;20064;-90
2021/06/27 01:30:06;;;;;;;28.55;22.85;;;;;;;20.75;58.39;100107.16;5071588;28;20052;-90
2021/06/27 01:32:33;;;;;;;27.35;22.98;;;;;;;20.73;58.20;100091.25;5073577;28;20048;-92
2021/06/27 01:35:06;;;;;;;29.70;24.13;;;;;;;20.70;58.16;100084.38;5073971;28;20413;-91
2021/06/27 01:37:33;;;;;;;29.88;23.48;;;;;;;20.69;58.07;100097.88;5071786;28;20049;-91
2021/06/27 01:39:59;;;;;;;30.67;24.95;;;;;;;20.65;58.34;100092.00;5071497;28;20136;-91
2021/06/27 01:42:26;;;;;;;29.17;23.98;;;;;;;20.64;58.29;100095.63;5072078;28;20052;-91
2021/06/27 01:44:53;;;;;;;31.13;24.58;;;;;;;20.62;58.70;100094.94;5071923;28;20055;-91
2021/06/27 01:47:29;;;;;;;29.15;23.48;;;;;;;20.55;59.06;100089.34;5072990;28;20063;-92
2021/06/27 01:49:56;;;;;;;30.38;23.88;;;;;;;20.56;58.50;100088.34;5072345;28;20551;-91
2021/06/27 01:53:21;;;;;;;28.40;23.60;;;;;;;20.48;59.10;100084.72;5071519;28;20107;-93
2021/06/27 01:56:33;;;;;;;29.83;23.55;;;;;;;20.52;58.34;100081.59;5072366;28;20139;-91
2021/06/27 01:59:14;;;;;;;27.85;24.00;;;;;;;20.45;59.48;100080.50;5072663;28;20052;-91
2021/06/27 02:02:09;;;;;;;29.50;24.55;;;;;;;20.40;59.17;100080.91;5071343;28;20048;-91
2021/06/27 02:04:36;;;;;;;30.17;23.50;;;;;;;20.41;58.72;100074.56;5072412;28;20135;-93
2021/06/27 02:07:05;;;;;;;29.83;24.45;;;;;;;20.36;59.22;100076.84;5072591;28;20090;-91
2021/06/27 02:09:38;;;;;;;29.40;25.05;;;;;;;20.31;59.76;100073.78;5073161;28;20540;-91
2021/06/27 02:12:09;;;;;;;29.33;23.67;;;;;;;20.29;59.15;100070.38;5072352;28;20177;-92
2021/06/27 02:15:15;;;;;;;33.42;27.02;;;;;;;20.21;59.56;100064.91;5071489;28;20044;-91
2021/06/27 02:18:27;;;;;;;32.25;25.88;;;;;;;20.19;59.39;100070.41;5071816;28;20055;-91
2021/06/27 02:20:56;;;;;;;32.30;25.20;;;;;;;20.21;59.44;100064.91;5071497;28;20053;-93
2021/06/27 02:23:25;;;;;;;31.58;24.60;;;;;;;20.18;59.24;100068.72;5072111;28;20048;-93
2021/06/27 02:25:52;;;;;;;30.40;25.45;;;;;;;20.14;59.59;100062.81;5070982;28;20048;-91
2021/06/27 02:28:18;;;;;;;30.55;25.65;;;;;;;20.14;59.50;100067.31;5072089;28;20056;-90
2021/06/27 02:30:46;;;;;;;33.10;25.42;;;;;;;20.11;59.61;100063.09;5071582;28;20398;-92
2021/06/27 02:33:21;;;;;;;31.77;25.73;;;;;;;20.06;60.47;100062.69;5071611;28;20055;-91
2021/06/27 02:35:48;;;;;;;33.80;26.73;;;;;;;20.10;59.95;100065.91;5071328;28;20049;-91
2021/06/27 02:38:15;;;;;;;31.85;24.73;;;;;;;20.07;60.00;100055.53;5071441;28;20497;-90
2021/06/27 02:40:42;;;;;;;33.45;27.23;;;;;;;20.04;60.24;100067.34;5070176;28;20051;-91
2021/06/27 02:43:10;;;;;;;33.53;25.58;;;;;;;20.03;60.09;100063.81;5071690;28;20064;-91
2021/06/27 02:45:38;;;;;;;32.83;27.02;;;;;;;20.02;60.42;100059.47;5070401;28;20059;-90
2021/06/27 02:48:06;;;;;;;34.03;26.80;;;;;;;20.02;60.36;100058.59;5072262;28;20055;-93
2021/06/27 02:50:35;;;;;;;33.17;26.88;;;;;;;20.02;60.44;100063.94;5073268;28;20552;-91
2021/06/27 02:53:03;;;;;;;33.83;26.00;;;;;;;20.01;60.53;100059.59;5073906;28;20048;-91
2021/06/27 02:55:30;;;;;;;34.13;27.75;;;;;;;20.00;60.59;100063.25;5074056;28;20045;-92
2021/06/27 02:57:57;;;;;;;34.60;27.30;;;;;;;19.99;60.43;100069.56;5075363;28;20052;-91
2021/06/27 03:00:25;;;;;;;32.58;26.42;;;;;;;19.96;60.66;100059.97;5073964;28;20059;-91
2021/06/27 03:02:52;;;;;;;33.05;27.65;;;;;;;19.97;60.68;100068.84;5076202;28;20417;-90
2021/06/27 03:05:19;;;;;;;35.30;27.50;;;;;;;19.95;60.77;100065.50;5076578;28;20051;-91
2021/06/27 03:07:46;;;;;;;37.10;27.85;;;;;;;19.93;60.58;100061.09;5074460;28;20052;-92
2021/06/27 03:10:16;;;;;;;34.13;27.20;;;;;;;19.92;60.64;100069.25;5076364;28;20048;-92
2021/06/27 03:12:45;;;;;;;35.50;26.38;;;;;;;19.92;60.91;100070.13;5074247;28;20056;-91
2021/06/27 03:15:14;;;;;;;29.73;25.70;;;;;;;19.91;61.07;100068.44;5073759;28;20147;-90
2021/06/27 03:17:41;;;;;;;30.65;26.20;;;;;;;19.90;60.71;100066.75;5075262;28;20053;-90
2021/06/27 03:20:10;;;;;;;32.13;24.80;;;;;;;19.89;60.54;100061.53;5074806;28;20071;-89
2021/06/27 03:22:38;;;;;;;34.13;26.42;;;;;;;19.88;60.64;100066.03;5070835;28;20044;-91
2021/06/27 03:25:07;;;;;;;30.67;24.60;;;;;;;19.86;60.40;100060.00;5075479;28;20049;-90
2021/06/27 03:27:35;;;;;;;34.47;27.80;;;;;;;19.87;60.67;100064.34;5074958;28;20448;-90
2021/06/27 03:30:04;;;;;;;36.38;28.42;;;;;;;19.86;61.11;100059.16;5075360;28;20494;-90
2021/06/27 03:32:31;;;;;;;37.70;29.02;;;;;;;19.87;60.59;100050.13;5056863;28;20059;-89
2021/06/27 03:34:58;;;;;;;38.17;28.63;;;;;;;19.86;60.73;100053.81;5073196;28;20098;-90
2021/06/27 03:37:25;;;;;;;37.75;27.90;;;;;;;19.84;60.95;100056.63;5073392;28;20052;-90
2021/06/27 03:39:52;;;;;;;33.05;27.60;;;;;;;19.82;60.83;100050.59;5072907;28;20563;-91
2021/06/27 03:42:18;;;;;;;36.92;29.40;;;;;;;19.79;60.95;100045.50;5074745;28;20074;-91
2021/06/27 03:44:45;;;;;;;37.55;28.73;;;;;;;19.76;61.17;100043.97;5073453;28;20044;-90
2021/06/27 03:47:12;;;;;;;36.70;28.98;;;;;;;19.74;61.19;100037.91;5073672;28;20060;-91
2021/06/27 03:49:41;;;;;;;34.67;28.35;;;;;;;19.72;61.17;100047.91;5074477;28;20246;-89
2021/06/27 03:52:08;;;;;;;38.42;29.73;;;;;;;19.70;61.50;100049.03;5074507;28;20409;-90
2021/06/27 03:54:34;;;;;;;36.63;28.90;;;;;;;19.66;61.47;100046.63;5074202;28;20045;-90
2021/06/27 03:57:01;;;;;;;37.00;29.58;;;;;;;19.64;61.63;100048.63;5076699;28;20529;-91
2021/06/27 03:59:28;;;;;;;34.45;27.83;;;;;;;19.63;61.39;100052.25;5074331;28;20056;-90
2021/06/27 04:01:54;;;;;;;34.33;26.42;;;;;;;19.63;61.40;100054.09;5073477;28;20055;-90
2021/06/27 04:04:21;;;;;;;35.88;28.00;;;;;;;19.61;61.84;100048.03;5074548;28;20489;-89
2021/06/27 04:06:48;;;;;;;35.85;28.92;;;;;;;19.60;61.94;100041.00;5073966;28;20059;-90
2021/06/27 04:09:14;;;;;;;36.83;29.05;;;;;;;19.60;61.94;100049.88;5075639;28;20173;-91
2021/06/27 04:11:41;;;;;;;36.95;29.90;;;;;;;19.59;61.97;100045.50;5075163;28;20220;-91
2021/06/27 04:14:08;;;;;;;38.05;29.80;;;;;;;19.59;61.98;100040.16;5074717;28;20055;-91
2021/06/27 04:16:34;;;;;;;35.92;29.40;;;;;;;19.60;62.09;100044.53;5074321;28;20051;-90
2021/06/27 04:19:01;;;;;;;38.72;28.75;;;;;;;19.61;62.40;100043.53;5073739;28;20068;-89
2021/06/27 04:21:28;;;;;;;37.40;28.73;;;;;;;19.62;62.50;100034.53;5073915;28;20052;-91
2021/06/27 04:23:54;;;;;;;39.83;28.25;;;;;;;19.63;62.38;100030.88;5074038;28;20048;-90
2021/06/27 04:26:22;;;;;;;37.00;29.65;;;;;;;19.65;62.42;100026.25;5076379;28;20048;-91
2021/06/27 04:28:49;;;;;;;38.78;30.15;;;;;;;19.66;62.79;100027.06;5072878;28;20177;-90
2021/06/27 04:31:16;;;;;;;35.10;29.00;;;;;;;19.70;62.76;100023.16;5074558;28;20410;-90
2021/06/27 04:33:42;;;;;;;38.35;28.75;;;;;;;19.72;62.91;100023.88;5072654;28;20056;-91
2021/06/27 04:36:09;;;;;;;32.45;26.65;;;;;;;19.75;62.71;100020.06;5071840;28;20044;-90
2021/06/27 04:38:36;;;;;;;36.33;27.73;;;;;;;19.77;63.02;100018.09;5072543;28;20053;-91
2021/06/27 04:41:02;;;;;;;35.25;28.17;;;;;;;19.81;62.77;100016.81;5071984;28;20079;-89
2021/06/27 04:43:29;;;;;;;38.70;29.17;;;;;;;19.84;62.71;100016.53;5076257;28;20075;-90
2021/06/27 04:45:56;;;;;;;33.10;26.33;;;;;;;19.86;62.65;100014.59;5078489;28;20049;-90
2021/06/27 04:48:22;;;;;;;37.00;29.27;;;;;;;19.88;62.98;100006.41;5074280;28;20425;-91
2021/06/27 04:50:49;;;;;;;35.33;28.30;;;;;;;19.90;62.92;100013.31;5072448;28;20140;-90
2021/06/27 04:53:16;;;;;;;36.55;28.30;;;;;;;19.95;63.24;100009.38;5074090;28;20102;-91
2021/06/27 04:55:44;;;;;;;36.47;28.63;;;;;;;19.98;63.11;100003.72;5072342;28;20527;-91
2021/06/27 04:58:11;;;;;;;31.63;26.33;;;;;;;20.02;63.04;100000.69;5074588;28;20517;-91
2021/06/27 05:00:38;;;;;;;33.58;27.42;;;;;;;20.06;63.03;100001.22;5072853;28;20055;-91
2021/06/27 05:03:06;;;;;;;35.95;27.55;;;;;;;20.10;63.23;100002.63;5073705;28;20040;-90
2021/06/27 05:05:33;;;;;;;35.90;28.73;;;;;;;20.14;63.14;100000.50;5071523;28;20877;-90
2021/06/27 05:08:00;;;;;;;33.08;27.83;;;;;;;20.18;63.32;99997.41;5071606;28;20052;-89
2021/06/27 05:10:26;;;;;;;32.58;27.55;;;;;;;20.23;62.93;100002.31;5072914;28;20049;-92
2021/06/27 05:12:53;;;;;;;31.88;27.02;;;;;;;20.28;62.95;100004.53;5071042;28;20052;-91
2021/06/27 05:15:20;;;;;;;32.40;27.55;;;;;;;20.32;63.27;100000.59;5071538;28;20090;-92
2021/06/27 05:17:47;;;;;;;34.40;28.92;;;;;;;20.36;63.12;100002.00;5073101;28;20044;-90
2021/06/27 05:20:13;;;;;;;31.40;26.90;;;;;;;20.42;62.96;100011.28;5072110;28;20055;-90
2021/06/27 05:22:40;;;;;;;34.55;27.88;;;;;;;20.47;62.81;100006.31;5071521;28;20052;-91
2021/06/27 05:25:08;;;;;;;32.00;26.65;;;;;;;20.51;62.79;100004.19;5071596;28;20045;-90
2021/06/27 05:27:37;;;;;;;33.40;27.73;;;;;;;20.55;63.18;100005.56;5071752;28;20049;-92
2021/06/27 05:30:06;;;;;;;31.83;28.13;;;;;;;20.62;62.99;100016.53;5076848;28;20402;-91
2021/06/27 05:32:35;;;;;;;33.72;27.45;;;;;;;20.65;62.60;100006.41;5076114;28;20083;-90
2021/06/27 05:35:05;;;;;;;36.17;28.08;;;;;;;20.70;62.80;100011.28;5079898;28;20371;-91
2021/06/27 05:37:32;;;;;;;34.03;27.88;;;;;;;20.75;62.76;100005.50;5071908;28;20059;-94
2021/06/27 05:39:59;;;;;;;33.33;27.20;;;;;;;20.78;62.63;100007.91;5071756;28;20560;-91
2021/06/27 05:42:26;;;;;;;40.10;27.67;;;;;;;20.84;62.88;100009.97;5072179;28;20052;-90
2021/06/27 05:44:54;;;;;;;33.15;26.85;;;;;;;20.88;62.59;100011.38;5072580;28;20413;-91
2021/06/27 05:47:20;;;;;;;33.10;26.92;;;;;;;20.94;62.77;99997.41;5056344;28;20105;-90
2021/06/27 05:49:47;;;;;;;29.50;26.30;;;;;;;20.99;62.83;99986.25;5071775;28;20052;-92
2021/06/27 05:52:14;;;;;;;30.85;26.00;;;;;;;21.04;62.74;99986.66;5072386;28;20053;-92
2021/06/27 05:54:41;;;;;;;30.00;25.63;;;;;;;21.11;62.45;99988.75;5071896;28;20486;-93
2021/06/27 05:57:10;;;;;;;28.85;24.95;;;;;;;21.16;62.64;99986.44;5071672;28;20053;-94
2021/06/27 05:59:37;;;;;;;26.20;22.77;;;;;;;21.22;62.27;99997.38;5072705;28;20071;-91
2021/06/27 06:02:04;;;;;;;27.35;24.33;;;;;;;21.29;62.43;99996.75;5072404;28;20052;-93
2021/06/27 06:04:31;;;;;;;28.15;23.25;;;;;;;21.36;62.36;99989.81;5071662;28;20060;-90
2021/06/27 06:06:57;;;;;;;25.73;22.70;;;;;;;21.43;62.02;99993.59;5073539;28;20048;-91
2021/06/27 06:09:24;;;;;;;28.08;23.52;;;;;;;21.53;62.12;99995.34;5073711;28;20123;-90
2021/06/27 06:11:51;;;;;;;27.92;23.85;;;;;;;21.61;62.27;99992.72;5074247;28;20048;-90
2021/06/27 06:14:18;;;;;;;27.73;23.20;;;;;;;21.69;62.19;99997.31;5071065;28;20060;-92
2021/06/27 06:16:45;;;;;;;27.55;22.63;;;;;;;21.79;61.87;99997.25;5070781;28;20057;-93
2021/06/27 06:19:14;;;;;;;24.77;20.58;;;;;;;21.86;61.55;100001.84;5071606;28;20056;-92
2021/06/27 06:21:40;;;;;;;26.63;20.60;;;;;;;21.95;61.80;100004.59;5073116;28;20078;-91
2021/06/27 06:24:07;;;;;;;22.77;20.10;;;;;;;22.04;61.91;100005.47;5075271;28;20052;-90
2021/06/27 06:26:34;;;;;;;22.85;20.45;;;;;;;22.11;61.52;100003.84;5076527;28;20048;-92
2021/06/27 06:29:01;;;;;;;20.98;18.77;;;;;;;22.20;61.03;100005.59;5077093;28;20056;-93
2021/06/27 06:31:28;;;;;;;24.00;20.55;;;;;;;22.30;60.89;100001.94;5077428;28;20048;-91
2021/06/27 06:33:55;;;;;;;22.42;20.02;;;;;;;22.38;60.36;99992.13;5075705;28;20048;-91
2021/06/27 06:36:21;;;;;;;23.77;20.08;;;;;;;22.47;60.64;99993.00;5076477;28;20441;-91
2021/06/27 06:38:48;;;;;;;24.88;19.73;;;;;;;22.57;60.59;100000.13;5075581;28;20048;-92
2021/06/27 06:41:19;;;;;;;24.88;19.73;;;;;;;22.64;60.75;99991.28;5075650;28;20060;-91
2021/06/27 06:43:45;;;;;;;21.45;18.80;;;;;;;22.74;60.38;99982.25;5075972;28;20060;-92
2021/06/27 06:46:12;;;;;;;20.58;18.40;;;;;;;22.84;60.53;99984.81;5075422;28;20044;-91
2021/06/27 06:48:39;;;;;;;20.38;18.17;;;;;;;22.92;60.31;99982.16;5074687;28;20087;-91
2021/06/27 06:51:06;;;;;;;21.45;18.35;;;;;;;23.02;60.22;99990.06;5075860;28;20048;-95
2021/06/27 06:53:33;;;;;;;20.98;17.63;;;;;;;23.11;59.74;99996.28;5076362;28;20055;-92
2021/06/27 06:56:00;;;;;;;21.92;18.73;;;;;;;23.19;59.55;99992.78;5074687;28;20053;-93
2021/06/27 06:58:30;;;;;;;20.70;18.48;;;;;;;23.26;59.35;99986.59;5077429;28;20063;-92
2021/06/27 07:00:57;;;;;;;19.35;17.05;;;;;;;23.35;59.12;99986.63;5074749;28;20529;-90
2021/06/27 07:03:30;;;;;;;19.23;17.10;;;;;;;23.40;58.97;99984.31;5075787;28;20110;-92
2021/06/27 07:05:59;;;;;;;20.27;18.03;;;;;;;23.48;58.62;99992.38;5075601;28;20052;-91
2021/06/27 07:08:27;;;;;;;19.25;17.30;;;;;;;23.55;58.40;99992.53;5075354;28;20052;-90
2021/06/27 07:10:54;;;;;;;19.63;17.02;;;;;;;23.59;58.51;99985.84;5075107;28;20674;-94
2021/06/27 07:13:21;;;;;;;19.13;17.13;;;;;;;23.62;58.16;99984.66;5074745;28;20045;-92
2021/06/27 07:15:48;;;;;;;18.67;16.50;;;;;;;23.66;58.62;99986.00;5074238;28;20049;-91
2021/06/27 07:18:18;;;;;;;18.45;15.70;;;;;;;23.71;58.03;99990.84;5074750;28;20056;-94
2021/06/27 07:20:45;;;;;;;19.33;15.68;;;;;;;23.76;58.17;100002.78;5074890;28;20431;-92
2021/06/27 07:23:12;;;;;;;16.25;14.55;;;;;;;23.81;57.45;99995.03;5074713;28;20052;-93
2021/06/27 07:25:38;;;;;;;17.58;15.77;;;;;;;23.87;57.91;99990.84;5073965;28;20402;-92
2021/06/27 07:28:05;;;;;;;17.60;15.10;;;;;;;23.94;57.30;99999.94;5074817;28;20414;-94
2021/06/27 07:30:32;;;;;;;30.08;16.70;;;;;;;24.00;57.41;99994.88;5074849;28;20056;-92
2021/06/27 07:32:59;;;;;;;18.30;15.52;;;;;;;24.06;57.11;99999.56;5074660;28;20530;-92
2021/06/27 07:35:26;;;;;;;16.48;14.77;;;;;;;24.13;57.45;100005.13;5072924;28;20410;-94
2021/06/27 07:37:53;;;;;;;17.70;15.90;;;;;;;24.20;57.47;100004.28;5074868;28;20045;-93
2021/06/27 07:40:20;;;;;;;18.65;15.90;;;;;;;24.30;57.36;100009.47;5073985;28;20060;-93
2021/06/27 07:42:49;;;;;;;18.67;16.73;;;;;;;24.40;57.60;100008.47;5074017;28;20063;-91
2021/06/27 07:45:16;;;;;;;34.72;18.27;;;;;;;24.51;57.35;100010.75;5072795;28;20059;-94
2021/06/27 07:47:43;;;;;;;27.35;15.77;;;;;;;24.62;56.72;100019.50;5074370;28;20052;-93
2021/06/27 07:50:10;;;;;;;26.33;15.55;;;;;;;24.70;57.05;100014.91;5075387;28;20052;-92
2021/06/27 07:52:38;;;;;;;15.85;14.30;;;;;;;24.82;56.86;100020.72;5074730;28;20517;-92
2021/06/27 07:55:07;;;;;;;14.50;13.00;;;;;;;24.92;56.74;100014.31;5073909;28;20143;-91
2021/06/27 07:57:37;;;;;;;12.90;11.63;;;;;;;25.02;55.46;100009.56;5074061;28;20044;-92
2021/06/27 08:00:07;;;;;;;11.30;10.10;;;;;;;25.11;55.04;100013.06;5073982;28;20421;-93
2021/06/27 08:02:34;;;;;;;11.77;10.57;;;;;;;25.18;55.03;100019.41;5074493;28;20493;-92
2021/06/27 08:05:01;;;;;;;12.15;11.02;;;;;;;25.26;54.56;100015.81;5074673;28;20106;-91
2021/06/27 08:07:28;;;;;;;12.02;10.80;;;;;;;25.31;54.44;100016.13;5073396;28;20052;-92
2021/06/27 08:09:55;;;;;;;12.32;11.10;;;;;;;25.35;54.02;100014.75;5075121;28;20049;-91
2021/06/27 08:12:22;;;;;;;11.93;10.82;;;;;;;25.41;54.06;100013.19;5073683;28;20052;-93
2021/06/27 08:14:48;;;;;;;12.23;10.98;;;;;;;25.44;53.55;100010.16;5076144;28;20045;-90
2021/06/27 08:17:15;;;;;;;11.48;10.25;;;;;;;25.49;53.76;100017.72;5073642;28;20399;-92
2021/06/27 08:19:42;;;;;;;12.88;10.65;;;;;;;25.52;53.78;100014.63;5075369;28;20047;-92
2021/06/27 08:22:09;;;;;;;13.27;10.45;;;;;;;25.55;53.74;100016.97;5075468;28;20045;-91
2021/06/27 08:24:36;;;;;;;10.80;9.80;;;;;;;25.60;53.83;100014.63;5073825;28;20058;-92
2021/06/27 08:27:03;;;;;;;12.23;10.70;;;;;;;25.65;53.27;100022.16;5073520;28;20048;-92
2021/06/27 08:29:29;;;;;;;11.95;10.85;;;;;;;25.70;53.30;100016.22;5075087;28;20055;-91
2021/06/27 08:31:56;;;;;;;13.52;9.77;;;;;;;25.74;53.31;100015.69;5073332;28;20493;-92
2021/06/27 08:34:23;;;;;;;11.55;10.35;;;;;;;25.80;53.09;100011.44;5074469;28;20494;-93
2021/06/27 08:36:49;;;;;;;9.93;8.93;;;;;;;25.87;52.75;100014.25;5073753;28;20675;-92
2021/06/27 08:39:16;;;;;;;10.27;9.38;;;;;;;25.93;53.00;100008.09;5075102;28;20056;-91
2021/06/27 08:41:43;;;;;;;11.50;10.05;;;;;;;26.01;53.04;100012.56;5073044;28;20057;-92
2021/06/27 08:44:12;;;;;;;9.88;8.88;;;;;;;26.08;52.84;100005.44;5071693;28;20056;-91
2021/06/27 08:46:43;;;;;;;10.60;9.50;;;;;;;26.14;52.80;100004.72;5075665;28;20044;-91
2021/06/27 08:49:14;;;;;;;10.52;9.10;;;;;;;26.23;52.97;100001.91;5072186;28;20044;-90
2021/06/27 08:51:41;;;;;;;10.23;9.23;;;;;;;26.31;52.65;99998.34;5073412;28;20044;-91
2021/06/27 08:54:09;;;;;;;8.43;7.63;;;;;;;26.39;52.78;99999.06;5072969;28;20501;-91
2021/06/27 08:56:38;;;;;;;9.35;8.45;;;;;;;26.48;52.18;99999.81;5072406;28;20169;-92
2021/06/27 08:59:05;;;;;;;9.63;8.65;;;;;;;26.57;52.42;99995.16;5073163;28;20060;-91
2021/06/27 09:01:32;;;;;;;9.15;8.25;;;;;;;26.65;52.46;99994.25;5072362;28;20067;-93
2021/06/27 09:04:02;;;;;;;9.07;8.18;;;;;;;26.74;51.62;99995.81;5071757;28;20052;-94
2021/06/27 09:06:32;;;;;;;8.20;7.22;;;;;;;26.83;51.63;99993.81;5073407;28;20040;-91
2021/06/27 09:09:17;;;;;;;8.15;7.43;;;;;;;26.90;52.24;99993.91;5072333;28;20055;-92
2021/06/27 09:12:01;;;;;;;8.50;7.50;;;;;;;27.00;51.58;99988.22;5073024;28;20056;-92
2021/06/27 09:14:38;;;;;;;11.80;6.78;;;;;;;27.17;51.68;99988.84;5072990;28;20060;-91
2021/06/27 09:17:14;;;;;;;6.70;5.38;;;;;;;27.25;49.62;99990.59;5072328;28;20422;-93
2021/06/27 09:20:11;;;;;;;5.90;5.35;;;;;;;27.32;49.83;99986.91;5072125;28;20053;-91
2021/06/27 09:22:50;;;;;;;6.75;5.10;;;;;;;27.45;49.28;99986.22;5061140;28;20051;-91
2021/06/27 09:25:26;;;;;;;5.72;5.22;;;;;;;27.55;48.76;99985.06;5072840;28;20067;-90
2021/06/27 09:28:08;;;;;;;5.82;5.32;;;;;;;27.63;48.63;99981.41;5071854;28;20051;-91
2021/06/27 09:30:41;;;;;;;5.78;5.28;;;;;;;27.72;47.57;99980.22;5073776;28;20060;-91
2021/06/27 09:33:11;;;;;;;10.77;5.55;;;;;;;27.78;48.90;99976.75;5071331;28;20052;-94
2021/06/27 09:35:55;;;;;;;6.03;5.40;;;;;;;27.83;47.68;99974.28;5071382;28;20052;-92
2021/06/27 09:38:38;;;;;;;4.97;4.57;;;;;;;27.90;48.41;99978.91;5071701;28;20059;-92
2021/06/27 09:41:22;;;;;;;5.03;4.53;;;;;;;27.93;48.53;99968.53;5071555;28;20414;-92
2021/06/27 09:43:52;;;;;;;5.03;4.53;;;;;;;28.02;47.14;99973.78;5075393;28;20056;-92
2021/06/27 09:46:36;;;;;;;4.72;4.28;;;;;;;28.04;47.05;99969.00;5073104;28;20040;-91
2021/06/27 09:49:08;;;;;;;5.07;4.57;;;;;;;28.13;47.05;99965.13;5054472;28;20053;-91
2021/06/27 09:51:40;;;;;;;4.82;4.43;;;;;;;28.21;47.32;99964.97;5051561;28;20072;-93
2021/06/27 09:54:19;;;;;;;5.57;5.07;;;;;;;28.26;46.27;99958.16;5051527;28;20060;-93
2021/06/27 09:56:46;;;;;;;4.57;4.18;;;;;;;28.35;46.86;99959.66;5053617;28;20059;-92
2021/06/27 10:02:59;;;;;;;5.07;4.15;;;;;;;28.48;46.87;99956.19;5047869;28;20056;-92
2021/06/27 10:05:26;;;;;;;4.82;4.32;;;;;;;28.58;46.37;99963.91;5080533;28;20045;-96
2021/06/27 10:07:55;;;;;;;4.72;4.18;;;;;;;28.64;46.62;99965.84;5075892;28;20044;-93
2021/06/27 10:10:22;;;;;;;5.00;4.53;;;;;;;28.71;45.89;99955.84;5071106;28;20045;-92
2021/06/27 10:12:49;;;;;;;5.75;4.40;;;;;;;28.80;45.37;99955.66;5072605;28;20149;-93
2021/06/27 10:15:20;;;;;;;5.05;4.35;;;;;;;28.88;44.12;99955.47;5072542;28;20106;-93
2021/06/27 10:17:47;;;;;;;7.32;4.65;;;;;;;28.95;45.41;99934.69;5072530;28;20048;-91
2021/06/27 10:20:15;;;;;;;5.53;4.30;;;;;;;29.03;44.24;99946.41;5071867;28;20493;-93
2021/06/27 10:23:01;;;;;;;5.30;4.80;;;;;;;29.08;44.69;99955.56;5071311;28;20055;-92
2021/06/27 10:25:43;;;;;;;5.93;4.38;;;;;;;29.21;44.86;99941.22;5070295;28;20517;-92
2021/06/27 10:28:10;;;;;;;5.38;4.72;;;;;;;29.30;45.42;99932.88;5073353;28;20059;-92
2021/06/27 10:30:37;;;;;;;6.50;4.50;;;;;;;29.39;45.30;99939.78;5072087;28;20055;-94
2021/06/27 10:33:06;;;;;;;5.88;4.43;;;;;;;29.50;44.29;99938.31;5072638;28;20044;-94
2021/06/27 10:35:36;;;;;;;4.93;4.13;;;;;;;29.59;43.80;99938.94;5075121;28;20063;-92
2021/06/27 10:38:09;;;;;;;4.50;4.05;;;;;;;29.70;44.66;99930.19;5071605;28;20048;-92
2021/06/27 10:40:54;;;;;;;4.28;3.97;;;;;;;29.82;44.30;99932.28;5071253;28;20052;-92
2021/06/27 10:43:21;;;;;;;5.72;4.82;;;;;;;30.02;44.16;99930.34;5071411;28;20053;-93
2021/06/27 10:46:32;;;;;;;4.72;4.32;;;;;;;30.20;44.03;99937.00;5071736;28;20097;-92
2021/06/27 10:48:58;;;;;;;4.05;3.63;;;;;;;30.50;43.42;99931.03;5072195;28;20067;-90
2021/06/27 10:52:05;;;;;;;3.97;3.65;;;;;;;30.72;42.92;99925.34;5071853;28;20060;-90
2021/06/27 10:54:38;;;;;;;4.78;3.67;;;;;;;31.11;42.58;99919.03;5072559;28;20056;-87
2021/06/27 10:57:18;;;;;;;5.50;3.95;;;;;;;31.38;41.00;99929.75;5052504;28;20053;-91
2021/06/27 10:59:54;;;;;;;3.83;3.53;;;;;;;31.69;39.01;99928.03;5052247;28;20059;-90
2021/06/27 11:03:12;;;;;;;3.83;3.53;;;;;;;31.97;40.20;99924.00;5051059;28;20075;-90
2021/06/27 11:06:25;;;;;;;3.08;2.80;;;;;;;32.32;40.23;99923.38;5068237;28;20048;-89
2021/06/27 11:09:08;;;;;;;4.68;3.25;;;;;;;32.69;38.78;99924.41;5067636;28;20044;-93
2021/06/27 11:11:53;;;;;;;3.47;3.20;;;;;;;33.02;37.99;99923.13;5073283;28;20059;-88
2021/06/27 11:14:21;;;;;;;4.97;2.78;;;;;;;33.37;37.47;99919.66;5074158;28;20056;-90
2021/06/27 11:17:05;;;;;;;3.42;3.13;;;;;;;33.67;37.54;99921.47;5074927;28;20047;-91
2021/06/27 11:19:37;;;;;;;4.57;2.90;;;;;;;34.04;36.37;99919.53;5074025;28;20048;-89
2021/06/27 11:22:26;;;;;;;3.10;2.83;;;;;;;34.33;36.69;99913.31;5074136;28;20056;-89
2021/06/27 11:24:59;;;;;;;2.97;2.78;;;;;;;34.63;34.89;99918.59;5074436;28;20052;-89
2021/06/27 11:27:34;;;;;;;3.05;2.85;;;;;;;34.83;34.96;99911.84;5075702;28;20072;-88
2021/06/27 11:30:20;;;;;;;3.15;2.85;;;;;;;34.98;35.61;99910.47;5074396;28;20459;-88
2021/06/27 11:32:48;;;;;;;2.72;2.45;;;;;;;35.19;33.13;99908.91;5073998;28;20048;-89
2021/06/27 11:35:41;;;;;;;3.00;2.80;;;;;;;35.31;35.11;99914.28;5074413;28;20526;-90